sensor_id;sensor_type;location;lat;lon;timestamp;pressure;altitude;pressure_sealevel;temperature;humidity
76603;BME280;65075;48.390;17.598;2023-05-21T00:02:08;99939.34;;;21.46;57.73
76603;BME280;65075;48.390;17.598;2023-05-21T00:04:37;99945.13;;;21.70;56.45
76603;BME280;65075;48.390;17.598;2023-05-21T00:07:05;99942.06;;;21.63;55.54
76603;BME280;65075;48.390;17.598;2023-05-21T00:09:37;99939.88;;;21.77;56.70
76603;BME280;65075;48.390;17.598;2023-05-21T00:12:04;99937.41;;;22.55;53.96
76603;BME280;65075;48.390;17.598;2023-05-21T00:14:30;99936.59;;;21.75;56.27
76603;BME280;65075;48.390;17.598;2023-05-21T00:16:55;99933.97;;;21.41;55.89
76603;BME280;65075;48.390;17.598;2023-05-21T00:19:21;99939.56;;;21.70;56.22
76603;BME280;65075;48.390;17.598;2023-05-21T00:21:47;99930.16;;;21.07;56.94
76603;BME280;65075;48.390;17.598;2023-05-21T00:24:12;99925.63;;;19.69;61.15
76603;BME280;65075;48.390;17.598;2023-05-21T00:26:38;99940.09;;;20.23;60.22
76603;BME280;65075;48.390;17.598;2023-05-21T00:29:03;99929.28;;;19.17;63.57
76603;BME280;65075;48.390;17.598;2023-05-21T00:31:29;99936.72;;;19.08;64.96
76603;BME280;65075;48.390;17.598;2023-05-21T00:33:54;99926.66;;;19.12;64.42
76603;BME280;65075;48.390;17.598;2023-05-21T00:36:20;99938.50;;;18.81;64.53
76603;BME280;65075;48.390;17.598;2023-05-21T00:38:48;99938.72;;;18.00;68.11
76603;BME280;65075;48.390;17.598;2023-05-21T00:41:14;99924.97;;;17.59;69.53
76603;BME280;65075;48.390;17.598;2023-05-21T00:43:41;99938.75;;;18.71;66.32
76603;BME280;65075;48.390;17.598;2023-05-21T00:46:10;99919.16;;;18.10;67.70
76603;BME280;65075;48.390;17.598;2023-05-21T00:48:36;99918.78;;;19.67;63.53
76603;BME280;65075;48.390;17.598;2023-05-21T00:51:05;99925.44;;;18.73;65.92
76603;BME280;65075;48.390;17.598;2023-05-21T00:53:31;99921.75;;;18.86;65.76
76603;BME280;65075;48.390;17.598;2023-05-21T00:56:00;99915.22;;;17.89;68.41
76603;BME280;65075;48.390;17.598;2023-05-21T00:58:27;99931.31;;;19.03;65.23
76603;BME280;65075;48.390;17.598;2023-05-21T01:00:53;99924.97;;;18.22;68.59
76603;BME280;65075;48.390;17.598;2023-05-21T01:03:22;99917.50;;;18.58;67.45
76603;BME280;65075;48.390;17.598;2023-05-21T01:05:50;99915.69;;;18.54;66.92
76603;BME280;65075;48.390;17.598;2023-05-21T01:08:20;99915.81;;;18.49;67.50
76603;BME280;65075;48.390;17.598;2023-05-21T01:10:48;99905.97;;;18.20;68.45
76603;BME280;65075;48.390;17.598;2023-05-21T01:13:15;99877.94;;;18.13;67.71
76603;BME280;65075;48.390;17.598;2023-05-21T01:15:43;99902.44;;;19.17;64.89
76603;BME280;65075;48.390;17.598;2023-05-21T01:18:08;99896.53;;;18.21;67.74
76603;BME280;65075;48.390;17.598;2023-05-21T01:20:34;99893.50;;;18.67;66.75
76603;BME280;65075;48.390;17.598;2023-05-21T01:23:02;99893.22;;;18.33;67.54
76603;BME280;65075;48.390;17.598;2023-05-21T01:25:28;99888.53;;;17.98;68.54
76603;BME280;65075;48.390;17.598;2023-05-21T01:27:53;99887.69;;;18.33;67.90
76603;BME280;65075;48.390;17.598;2023-05-21T01:30:21;99893.72;;;17.99;68.85
76603;BME280;65075;48.390;17.598;2023-05-21T01:32:57;99888.94;;;18.27;67.94
76603;BME280;65075;48.390;17.598;2023-05-21T01:35:41;99889.38;;;17.71;70.75
76603;BME280;65075;48.390;17.598;2023-05-21T01:38:28;99880.50;;;18.10;69.05
76603;BME280;65075;48.390;17.598;2023-05-21T01:41:01;99883.28;;;19.60;64.76
76603;BME280;65075;48.390;17.598;2023-05-21T01:43:31;99881.66;;;18.09;68.91
76603;BME280;65075;48.390;17.598;2023-05-21T01:45:59;99888.19;;;17.63;70.72
76603;BME280;65075;48.390;17.598;2023-05-21T01:48:27;99880.13;;;18.83;65.98
76603;BME280;65075;48.390;17.598;2023-05-21T01:50:57;99875.38;;;17.67;70.86
76603;BME280;65075;48.390;17.598;2023-05-21T01:53:24;99885.28;;;18.76;66.91
76603;BME280;65075;48.390;17.598;2023-05-21T01:55:50;99879.25;;;19.05;65.65
76603;BME280;65075;48.390;17.598;2023-05-21T01:58:16;99884.88;;;18.60;67.38
76603;BME280;65075;48.390;17.598;2023-05-21T02:00:41;99881.09;;;18.56;66.57
76603;BME280;65075;48.390;17.598;2023-05-21T02:03:10;99888.84;;;19.77;62.96
76603;BME280;65075;48.390;17.598;2023-05-21T02:05:35;99883.03;;;20.22;61.97
76603;BME280;65075;48.390;17.598;2023-05-21T02:08:01;99880.75;;;20.24;62.12
76603;BME280;65075;48.390;17.598;2023-05-21T02:10:27;99866.75;;;20.63;60.46
76603;BME280;65075;48.390;17.598;2023-05-21T02:12:52;99874.81;;;21.02;58.57
76603;BME280;65075;48.390;17.598;2023-05-21T02:15:18;99874.25;;;21.26;58.04
76603;BME280;65075;48.390;17.598;2023-05-21T02:17:44;99880.47;;;21.61;57.14
76603;BME280;65075;48.390;17.598;2023-05-21T02:20:11;99891.81;;;21.47;56.81
76603;BME280;65075;48.390;17.598;2023-05-21T02:22:47;99887.81;;;21.86;56.41
76603;BME280;65075;48.390;17.598;2023-05-21T02:25:16;99867.28;;;21.87;55.49
76603;BME280;65075;48.390;17.598;2023-05-21T02:27:42;99879.47;;;21.95;55.20
76603;BME280;65075;48.390;17.598;2023-05-21T02:30:11;99889.03;;;20.84;58.75
76603;BME280;65075;48.390;17.598;2023-05-21T02:32:37;99885.19;;;20.33;61.39
76603;BME280;65075;48.390;17.598;2023-05-21T02:35:08;99878.81;;;20.33;60.89
76603;BME280;65075;48.390;17.598;2023-05-21T02:37:35;99875.97;;;19.81;61.83
76603;BME280;65075;48.390;17.598;2023-05-21T02:40:03;99875.03;;;19.94;61.09
76603;BME280;65075;48.390;17.598;2023-05-21T02:42:32;99876.03;;;20.24;61.26
76603;BME280;65075;48.390;17.598;2023-05-21T02:44:58;99871.16;;;19.39;62.49
76603;BME280;65075;48.390;17.598;2023-05-21T02:47:24;99844.78;;;18.71;65.43
76603;BME280;65075;48.390;17.598;2023-05-21T02:49:51;99868.25;;;19.13;64.77
76603;BME280;65075;48.390;17.598;2023-05-21T02:52:19;99852.78;;;18.15;67.92
76603;BME280;65075;48.390;17.598;2023-05-21T02:54:47;99866.41;;;18.11;67.86
76603;BME280;65075;48.390;17.598;2023-05-21T02:57:12;99863.97;;;18.76;65.30
76603;BME280;65075;48.390;17.598;2023-05-21T02:59:38;99863.09;;;18.67;66.76
76603;BME280;65075;48.390;17.598;2023-05-21T03:02:04;99864.34;;;19.14;63.89
76603;BME280;65075;48.390;17.598;2023-05-21T03:04:29;99857.44;;;18.28;66.75
76603;BME280;65075;48.390;17.598;2023-05-21T03:06:55;99858.22;;;17.16;71.32
76603;BME280;65075;48.390;17.598;2023-05-21T03:09:21;99854.56;;;16.42;73.39
76603;BME280;65075;48.390;17.598;2023-05-21T03:11:48;99842.78;;;16.23;74.22
76603;BME280;65075;48.390;17.598;2023-05-21T03:14:14;99849.22;;;16.97;72.19
76603;BME280;65075;48.390;17.598;2023-05-21T03:16:41;99849.16;;;16.70;71.49
76603;BME280;65075;48.390;17.598;2023-05-21T03:19:09;99845.34;;;16.98;70.86
76603;BME280;65075;48.390;17.598;2023-05-21T03:21:36;99848.50;;;17.18;70.51
76603;BME280;65075;48.390;17.598;2023-05-21T03:24:02;99854.41;;;17.80;68.28
76603;BME280;65075;48.390;17.598;2023-05-21T03:26:28;99860.03;;;17.07;70.26
76603;BME280;65075;48.390;17.598;2023-05-21T03:28:54;99850.81;;;17.93;67.71
76603;BME280;65075;48.390;17.598;2023-05-21T03:31:21;99852.84;;;17.88;66.59
76603;BME280;65075;48.390;17.598;2023-05-21T03:33:47;99868.56;;;18.37;65.84
76603;BME280;65075;48.390;17.598;2023-05-21T03:36:13;99867.38;;;17.52;67.66
76603;BME280;65075;48.390;17.598;2023-05-21T03:38:39;99874.13;;;17.33;69.20
76603;BME280;65075;48.390;17.598;2023-05-21T03:41:08;99869.84;;;17.13;70.07
76603;BME280;65075;48.390;17.598;2023-05-21T03:43:33;99883.88;;;17.71;67.95
76603;BME280;65075;48.390;17.598;2023-05-21T03:45:59;99865.56;;;17.61;68.67
76603;BME280;65075;48.390;17.598;2023-05-21T03:48:24;99861.28;;;17.28;69.24
76603;BME280;65075;48.390;17.598;2023-05-21T03:50:50;99864.34;;;17.67;69.03
76603;BME280;65075;48.390;17.598;2023-05-21T03:53:16;99870.34;;;18.19;66.86
76603;BME280;65075;48.390;17.598;2023-05-21T03:55:42;99869.59;;;18.05;66.57
76603;BME280;65075;48.390;17.598;2023-05-21T03:58:08;99877.03;;;17.68;68.64
76603;BME280;65075;48.390;17.598;2023-05-21T04:00:35;99873.78;;;18.02;66.56
76603;BME280;65075;48.390;17.598;2023-05-21T04:03:05;99871.88;;;18.47;65.83
76603;BME280;65075;48.390;17.598;2023-05-21T04:05:31;99861.03;;;18.51;65.42
76603;BME280;65075;48.390;17.598;2023-05-21T04:07:58;99884.25;;;19.25;62.13
76603;BME280;65075;48.390;17.598;2023-05-21T04:10:24;99891.16;;;19.92;60.46
76603;BME280;65075;48.390;17.598;2023-05-21T04:12:51;99884.59;;;19.71;61.06
76603;BME280;65075;48.390;17.598;2023-05-21T04:15:19;99853.56;;;21.82;55.44
76603;BME280;65075;48.390;17.598;2023-05-21T04:17:45;99880.63;;;20.37;58.25
76603;BME280;65075;48.390;17.598;2023-05-21T04:20:14;99880.63;;;20.29;59.53
76603;BME280;65075;48.390;17.598;2023-05-21T04:22:41;99884.50;;;22.01;54.05
76603;BME280;65075;48.390;17.598;2023-05-21T04:25:07;99895.69;;;19.71;61.16
76603;BME280;65075;48.390;17.598;2023-05-21T04:27:35;99893.03;;;21.29;56.22
76603;BME280;65075;48.390;17.598;2023-05-21T04:30:01;99894.28;;;21.49;56.63
76603;BME280;65075;48.390;17.598;2023-05-21T04:32:29;99877.47;;;22.24;53.56
76603;BME280;65075;48.390;17.598;2023-05-21T04:34:59;99887.63;;;21.33;56.57
76603;BME280;65075;48.390;17.598;2023-05-21T04:37:28;99857.59;;;21.26;56.60
76603;BME280;65075;48.390;17.598;2023-05-21T04:39:58;99887.50;;;21.21;57.10
76603;BME280;65075;48.390;17.598;2023-05-21T04:42:26;99903.72;;;19.98;59.94
76603;BME280;65075;48.390;17.598;2023-05-21T04:44:51;99876.38;;;20.66;58.27
76603;BME280;65075;48.390;17.598;2023-05-21T04:47:19;99887.53;;;21.03;58.68
76603;BME280;65075;48.390;17.598;2023-05-21T04:49:45;99886.94;;;22.44;54.58
76603;BME280;65075;48.390;17.598;2023-05-21T04:52:11;99868.28;;;22.03;54.87
76603;BME280;65075;48.390;17.598;2023-05-21T04:54:37;99891.91;;;22.39;54.33
76603;BME280;65075;48.390;17.598;2023-05-21T04:57:06;99890.22;;;21.38;56.79
76603;BME280;65075;48.390;17.598;2023-05-21T04:59:31;99898.28;;;21.60;56.21
76603;BME280;65075;48.390;17.598;2023-05-21T05:01:57;99873.22;;;20.84;58.42
76603;BME280;65075;48.390;17.598;2023-05-21T05:04:23;99901.94;;;19.46;63.07
76603;BME280;65075;48.390;17.598;2023-05-21T05:06:48;99881.16;;;21.20;59.40
76603;BME280;65075;48.390;17.598;2023-05-21T05:09:14;99889.78;;;23.22;52.43
76603;BME280;65075;48.390;17.598;2023-05-21T05:11:40;99892.69;;;23.25;52.67
76603;BME280;65075;48.390;17.598;2023-05-21T05:14:06;99896.53;;;24.58;49.00
76603;BME280;65075;48.390;17.598;2023-05-21T05:16:32;99886.59;;;24.44;49.94
76603;BME280;65075;48.390;17.598;2023-05-21T05:19:00;99891.31;;;24.28;49.15
76603;BME280;65075;48.390;17.598;2023-05-21T05:21:25;99889.06;;;26.68;44.24
76603;BME280;65075;48.390;17.598;2023-05-21T05:23:51;99894.75;;;25.99;45.78
76603;BME280;65075;48.390;17.598;2023-05-21T05:26:17;99891.44;;;25.78;46.71
76603;BME280;65075;48.390;17.598;2023-05-21T05:28:43;99857.44;;;26.45;42.87
76603;BME280;65075;48.390;17.598;2023-05-21T05:31:10;99893.00;;;27.02;43.11
76603;BME280;65075;48.390;17.598;2023-05-21T05:33:35;99899.56;;;25.67;46.44
76603;BME280;65075;48.390;17.598;2023-05-21T05:36:01;99881.44;;;25.77;45.68
76603;BME280;65075;48.390;17.598;2023-05-21T05:38:27;99879.50;;;26.69;44.48
76603;BME280;65075;48.390;17.598;2023-05-21T05:40:53;99883.25;;;28.69;39.52
76603;BME280;65075;48.390;17.598;2023-05-21T05:43:19;99878.53;;;25.26;47.25
76603;BME280;65075;48.390;17.598;2023-05-21T05:45:44;99885.50;;;24.89;47.72
76603;BME280;65075;48.390;17.598;2023-05-21T05:48:10;99879.81;;;24.58;47.94
76603;BME280;65075;48.390;17.598;2023-05-21T05:50:36;99879.59;;;25.37;46.31
76603;BME280;65075;48.390;17.598;2023-05-21T05:53:01;99878.41;;;26.01;45.01
76603;BME280;65075;48.390;17.598;2023-05-21T05:55:27;99882.72;;;27.10;44.13
76603;BME280;65075;48.390;17.598;2023-05-21T05:57:53;99881.38;;;26.08;45.36
76603;BME280;65075;48.390;17.598;2023-05-21T06:00:18;99877.31;;;25.71;46.93
76603;BME280;65075;48.390;17.598;2023-05-21T06:02:44;99876.09;;;25.87;46.99
76603;BME280;65075;48.390;17.598;2023-05-21T06:05:10;99877.81;;;27.45;43.75
76603;BME280;65075;48.390;17.598;2023-05-21T06:07:39;99884.72;;;27.32;41.45
76603;BME280;65075;48.390;17.598;2023-05-21T06:10:08;99884.25;;;27.49;40.98
76603;BME280;65075;48.390;17.598;2023-05-21T06:12:34;99869.72;;;27.66;39.38
76603;BME280;65075;48.390;17.598;2023-05-21T06:14:59;99828.09;;;25.50;42.27
76603;BME280;65075;48.390;17.598;2023-05-21T06:17:26;99886.69;;;26.48;40.64
76603;BME280;65075;48.390;17.598;2023-05-21T06:19:51;99879.19;;;25.67;43.54
76603;BME280;65075;48.390;17.598;2023-05-21T06:22:17;99882.69;;;25.64;43.69
76603;BME280;65075;48.390;17.598;2023-05-21T06:24:42;99872.28;;;26.68;39.62
76603;BME280;65075;48.390;17.598;2023-05-21T06:27:08;99880.34;;;27.54;38.98
76603;BME280;65075;48.390;17.598;2023-05-21T06:29:34;99879.66;;;26.77;39.28
76603;BME280;65075;48.390;17.598;2023-05-21T06:31:59;99882.03;;;26.36;39.81
76603;BME280;65075;48.390;17.598;2023-05-21T06:34:26;99880.25;;;26.86;38.51
76603;BME280;65075;48.390;17.598;2023-05-21T06:36:52;99883.50;;;27.52;36.37
76603;BME280;65075;48.390;17.598;2023-05-21T06:39:18;99875.47;;;25.94;39.32
76603;BME280;65075;48.390;17.598;2023-05-21T06:41:44;99852.78;;;26.34;38.15
76603;BME280;65075;48.390;17.598;2023-05-21T06:44:09;99878.28;;;26.48;38.52
76603;BME280;65075;48.390;17.598;2023-05-21T06:46:35;99886.00;;;26.35;37.46
76603;BME280;65075;48.390;17.598;2023-05-21T06:49:01;99872.56;;;24.96;40.75
76603;BME280;65075;48.390;17.598;2023-05-21T06:51:27;99882.38;;;26.15;38.19
76603;BME280;65075;48.390;17.598;2023-05-21T06:53:55;99868.50;;;27.41;36.01
76603;BME280;65075;48.390;17.598;2023-05-21T06:56:20;99885.06;;;27.99;33.70
76603;BME280;65075;48.390;17.598;2023-05-21T06:58:46;99852.41;;;26.35;36.73
76603;BME280;65075;48.390;17.598;2023-05-21T07:01:15;99893.34;;;27.65;34.57
76603;BME280;65075;48.390;17.598;2023-05-21T07:03:45;99863.59;;;28.10;34.06
76603;BME280;65075;48.390;17.598;2023-05-21T07:06:11;99892.41;;;29.00;33.93
76603;BME280;65075;48.390;17.598;2023-05-21T07:08:36;99873.41;;;27.97;34.52
76603;BME280;65075;48.390;17.598;2023-05-21T07:11:02;99851.28;;;24.92;40.36
76603;BME280;65075;48.390;17.598;2023-05-21T07:13:28;99876.41;;;28.07;34.76
76603;BME280;65075;48.390;17.598;2023-05-21T07:15:54;99872.53;;;26.41;37.42
76603;BME280;65075;48.390;17.598;2023-05-21T07:18:19;99866.59;;;27.71;35.52
76603;BME280;65075;48.390;17.598;2023-05-21T07:20:45;99887.19;;;28.35;33.86
76603;BME280;65075;48.390;17.598;2023-05-21T07:23:10;99874.50;;;26.98;35.84
76603;BME280;65075;48.390;17.598;2023-05-21T07:25:36;99888.16;;;26.99;35.96
76603;BME280;65075;48.390;17.598;2023-05-21T07:28:01;99884.06;;;28.40;34.41
76603;BME280;65075;48.390;17.598;2023-05-21T07:30:27;99857.59;;;28.41;33.33
76603;BME280;65075;48.390;17.598;2023-05-21T07:32:53;99887.25;;;29.02;34.72
76603;BME280;65075;48.390;17.598;2023-05-21T07:35:18;99870.69;;;29.77;32.17
76603;BME280;65075;48.390;17.598;2023-05-21T07:37:44;99884.78;;;28.97;32.64
76603;BME280;65075;48.390;17.598;2023-05-21T07:40:11;99886.59;;;30.06;32.47
76603;BME280;65075;48.390;17.598;2023-05-21T07:42:37;99883.50;;;31.23;30.51
76603;BME280;65075;48.390;17.598;2023-05-21T07:45:03;99896.44;;;30.37;29.53
76603;BME280;65075;48.390;17.598;2023-05-21T07:47:29;99883.13;;;27.76;34.70
76603;BME280;65075;48.390;17.598;2023-05-21T07:49:54;99830.19;;;28.98;32.84
76603;BME280;65075;48.390;17.598;2023-05-21T07:52:20;99886.38;;;29.78;32.36
76603;BME280;65075;48.390;17.598;2023-05-21T07:54:46;99889.44;;;29.59;32.39
76603;BME280;65075;48.390;17.598;2023-05-21T07:57:11;99882.50;;;25.88;38.13
76603;BME280;65075;48.390;17.598;2023-05-21T07:59:37;99884.22;;;26.27;38.55
76603;BME280;65075;48.390;17.598;2023-05-21T08:02:02;99889.34;;;27.21;38.05
76603;BME280;65075;48.390;17.598;2023-05-21T08:04:28;99885.53;;;29.74;33.17
76603;BME280;65075;48.390;17.598;2023-05-21T08:06:53;99886.22;;;29.61;33.78
76603;BME280;65075;48.390;17.598;2023-05-21T08:09:19;99902.47;;;31.47;31.25
76603;BME280;65075;48.390;17.598;2023-05-21T08:11:45;99883.72;;;32.80;27.90
76603;BME280;65075;48.390;17.598;2023-05-21T08:14:11;99880.97;;;29.15;32.99
76603;BME280;65075;48.390;17.598;2023-05-21T08:16:36;99869.06;;;29.29;33.32
76603;BME280;65075;48.390;17.598;2023-05-21T08:19:03;99875.16;;;28.05;34.80
76603;BME280;65075;48.390;17.598;2023-05-21T08:21:28;99885.84;;;29.62;31.53
76603;BME280;65075;48.390;17.598;2023-05-21T08:23:54;99868.59;;;28.86;32.02
76603;BME280;65075;48.390;17.598;2023-05-21T08:26:19;99887.56;;;29.30;33.92
76603;BME280;65075;48.390;17.598;2023-05-21T08:28:45;99872.09;;;30.73;30.38
76603;BME280;65075;48.390;17.598;2023-05-21T08:31:11;99873.09;;;28.91;33.32
76603;BME280;65075;48.390;17.598;2023-05-21T08:33:37;99883.34;;;27.91;34.23
76603;BME280;65075;48.390;17.598;2023-05-21T08:36:06;99879.66;;;29.06;32.88
76603;BME280;65075;48.390;17.598;2023-05-21T08:38:33;99879.66;;;30.55;30.83
76603;BME280;65075;48.390;17.598;2023-05-21T08:40:59;99875.72;;;28.77;31.60
76603;BME280;65075;48.390;17.598;2023-05-21T08:43:28;99879.78;;;29.20;33.48
76603;BME280;65075;48.390;17.598;2023-05-21T08:45:56;99872.50;;;29.52;31.42
76603;BME280;65075;48.390;17.598;2023-05-21T08:48:24;99873.94;;;30.37;31.01
76603;BME280;65075;48.390;17.598;2023-05-21T08:50:52;99857.59;;;29.95;30.57
76603;BME280;65075;48.390;17.598;2023-05-21T08:53:17;99873.22;;;30.58;28.71
76603;BME280;65075;48.390;17.598;2023-05-21T08:55:43;99867.31;;;30.05;30.03
76603;BME280;65075;48.390;17.598;2023-05-21T08:58:09;99872.75;;;29.80;30.73
76603;BME280;65075;48.390;17.598;2023-05-21T09:00:35;99872.53;;;30.82;30.13
76603;BME280;65075;48.390;17.598;2023-05-21T09:03:03;99874.22;;;31.18;30.20
76603;BME280;65075;48.390;17.598;2023-05-21T09:05:38;99874.97;;;30.91;29.60
76603;BME280;65075;48.390;17.598;2023-05-21T09:08:05;99863.34;;;31.06;28.66
76603;BME280;65075;48.390;17.598;2023-05-21T09:10:39;99847.69;;;31.55;29.05
76603;BME280;65075;48.390;17.598;2023-05-21T09:13:05;99871.25;;;33.39;26.91
76603;BME280;65075;48.390;17.598;2023-05-21T09:15:39;99873.34;;;29.60;31.48
76603;BME280;65075;48.390;17.598;2023-05-21T09:18:06;99835.56;;;31.26;29.16
76603;BME280;65075;48.390;17.598;2023-05-21T09:20:31;99875.47;;;31.74;28.20
76603;BME280;65075;48.390;17.598;2023-05-21T09:23:02;99871.66;;;30.71;28.50
76603;BME280;65075;48.390;17.598;2023-05-21T09:25:28;99843.59;;;30.99;29.20
76603;BME280;65075;48.390;17.598;2023-05-21T09:27:57;99860.88;;;30.04;30.62
76603;BME280;65075;48.390;17.598;2023-05-21T09:30:23;99858.09;;;31.01;27.50
76603;BME280;65075;48.390;17.598;2023-05-21T09:32:57;99865.13;;;30.46;29.90
76603;BME280;65075;48.390;17.598;2023-05-21T09:35:23;99857.16;;;30.62;28.45
76603;BME280;65075;48.390;17.598;2023-05-21T09:37:51;99854.00;;;30.81;30.26
76603;BME280;65075;48.390;17.598;2023-05-21T09:40:20;99858.72;;;29.36;30.36
76603;BME280;65075;48.390;17.598;2023-05-21T09:42:47;99859.63;;;29.47;32.21
76603;BME280;65075;48.390;17.598;2023-05-21T09:45:23;99856.06;;;31.05;31.13
76603;BME280;65075;48.390;17.598;2023-05-21T09:47:50;99870.91;;;30.81;31.15
76603;BME280;65075;48.390;17.598;2023-05-21T09:50:22;99864.59;;;33.05;26.18
76603;BME280;65075;48.390;17.598;2023-05-21T09:52:49;99864.63;;;31.58;30.00
76603;BME280;65075;48.390;17.598;2023-05-21T09:55:21;99841.88;;;32.40;26.63
76603;BME280;65075;48.390;17.598;2023-05-21T09:57:48;99864.59;;;33.67;25.98
76603;BME280;65075;48.390;17.598;2023-05-21T10:00:21;99869.34;;;34.22;24.98
76603;BME280;65075;48.390;17.598;2023-05-21T10:02:54;99856.41;;;32.42;28.67
76603;BME280;65075;48.390;17.598;2023-05-21T10:05:25;99830.00;;;29.64;29.99
76603;BME280;65075;48.390;17.598;2023-05-21T10:07:52;99841.97;;;30.98;29.13
76603;BME280;65075;48.390;17.598;2023-05-21T10:10:21;99837.88;;;32.34;28.05
76603;BME280;65075;48.390;17.598;2023-05-21T10:12:58;99854.81;;;32.41;26.92
76603;BME280;65075;48.390;17.598;2023-05-21T10:15:29;99851.25;;;31.06;29.39
76603;BME280;65075;48.390;17.598;2023-05-21T10:17:58;99852.06;;;31.91;28.68
76603;BME280;65075;48.390;17.598;2023-05-21T10:20:24;99818.38;;;30.31;30.16
76603;BME280;65075;48.390;17.598;2023-05-21T10:22:50;99837.84;;;30.64;27.28
76603;BME280;65075;48.390;17.598;2023-05-21T10:25:16;99831.94;;;31.29;27.98
76603;BME280;65075;48.390;17.598;2023-05-21T10:27:41;99841.22;;;31.19;29.98
76603;BME280;65075;48.390;17.598;2023-05-21T10:30:08;99831.56;;;31.31;28.92
76603;BME280;65075;48.390;17.598;2023-05-21T10:32:34;99844.44;;;31.74;27.06
76603;BME280;65075;48.390;17.598;2023-05-21T10:35:00;99857.72;;;33.13;25.89
76603;BME280;65075;48.390;17.598;2023-05-21T10:37:28;99842.41;;;32.06;27.57
76603;BME280;65075;48.390;17.598;2023-05-21T10:39:55;99843.63;;;31.35;28.01
76603;BME280;65075;48.390;17.598;2023-05-21T10:43:01;99848.38;;;30.05;28.50
76603;BME280;65075;48.390;17.598;2023-05-21T10:48:18;99852.50;;;31.93;27.39
76603;BME280;65075;48.390;17.598;2023-05-21T10:50:59;99851.69;;;31.68;29.06
76603;BME280;65075;48.390;17.598;2023-05-21T11:01:32;99813.91;;;29.61;30.72
76603;BME280;65075;48.390;17.598;2023-05-21T11:03:59;99828.22;;;30.79;28.63
76603;BME280;65075;48.390;17.598;2023-05-21T11:06:26;99810.13;;;29.94;28.96
76603;BME280;65075;48.390;17.598;2023-05-21T11:08:52;99827.34;;;30.61;29.97
76603;BME280;65075;48.390;17.598;2023-05-21T11:14:31;99823.94;;;28.74;32.74
76603;BME280;65075;48.390;17.598;2023-05-21T11:17:11;99809.88;;;29.15;33.30
76603;BME280;65075;48.390;17.598;2023-05-21T11:19:44;99813.97;;;27.88;33.78
76603;BME280;65075;48.390;17.598;2023-05-21T11:24:48;99801.34;;;30.06;30.64
76603;BME280;65075;48.390;17.598;2023-05-21T11:27:33;99794.13;;;30.05;30.13
76603;BME280;65075;48.390;17.598;2023-05-21T11:30:23;99792.97;;;29.55;30.63
76603;BME280;65075;48.390;17.598;2023-05-21T11:38:18;99793.94;;;28.85;32.42
76603;BME280;65075;48.390;17.598;2023-05-21T11:40:52;99803.16;;;29.77;29.86
76603;BME280;65075;48.390;17.598;2023-05-21T11:43:21;99801.16;;;28.83;30.40
76603;BME280;65075;48.390;17.598;2023-05-21T11:45:46;99808.53;;;28.28;33.92
76603;BME280;65075;48.390;17.598;2023-05-21T11:48:12;99787.34;;;28.67;30.38
76603;BME280;65075;48.390;17.598;2023-05-21T11:50:38;99800.69;;;28.44;31.20
76603;BME280;65075;48.390;17.598;2023-05-21T11:53:06;99796.75;;;28.82;32.25
76603;BME280;65075;48.390;17.598;2023-05-21T11:55:37;99793.50;;;27.35;33.19
76603;BME280;65075;48.390;17.598;2023-05-21T11:58:08;99801.78;;;29.50;32.36
76603;BME280;65075;48.390;17.598;2023-05-21T12:00:39;99801.53;;;27.36;34.60
76603;BME280;65075;48.390;17.598;2023-05-21T12:03:05;99790.28;;;28.78;32.39
76603;BME280;65075;48.390;17.598;2023-05-21T12:05:48;99794.25;;;30.37;30.78
76603;BME280;65075;48.390;17.598;2023-05-21T12:08:23;99785.81;;;29.68;29.93
76603;BME280;65075;48.390;17.598;2023-05-21T12:10:58;99779.09;;;29.25;31.23
76603;BME280;65075;48.390;17.598;2023-05-21T12:13:24;99779.31;;;29.54;31.28
76603;BME280;65075;48.390;17.598;2023-05-21T12:15:52;99787.63;;;28.95;32.14
76603;BME280;65075;48.390;17.598;2023-05-21T12:18:18;99775.78;;;29.20;30.11
76603;BME280;65075;48.390;17.598;2023-05-21T12:20:43;99778.50;;;29.53;30.76
76603;BME280;65075;48.390;17.598;2023-05-21T12:23:18;99783.56;;;29.30;31.17
76603;BME280;65075;48.390;17.598;2023-05-21T12:25:44;99771.59;;;28.59;32.58
76603;BME280;65075;48.390;17.598;2023-05-21T12:28:11;99751.44;;;28.87;33.12
76603;BME280;65075;48.390;17.598;2023-05-21T12:30:37;99780.84;;;27.97;34.12
76603;BME280;65075;48.390;17.598;2023-05-21T12:33:02;99774.81;;;28.61;32.93
76603;BME280;65075;48.390;17.598;2023-05-21T12:35:29;99759.91;;;29.38;31.43
76603;BME280;65075;48.390;17.598;2023-05-21T12:37:55;99767.69;;;30.27;30.23
76603;BME280;65075;48.390;17.598;2023-05-21T12:40:21;99771.47;;;28.82;32.12
76603;BME280;65075;48.390;17.598;2023-05-21T12:42:46;99763.81;;;29.23;30.95
76603;BME280;65075;48.390;17.598;2023-05-21T12:45:13;99763.13;;;28.92;31.49
76603;BME280;65075;48.390;17.598;2023-05-21T12:47:38;99762.47;;;26.98;33.14
76603;BME280;65075;48.390;17.598;2023-05-21T12:50:07;99735.66;;;27.75;31.79
76603;BME280;65075;48.390;17.598;2023-05-21T12:52:33;99745.56;;;29.54;32.13
76603;BME280;65075;48.390;17.598;2023-05-21T12:54:59;99750.06;;;29.11;32.47
76603;BME280;65075;48.390;17.598;2023-05-21T12:57:36;99741.09;;;29.42;32.45
76603;BME280;65075;48.390;17.598;2023-05-21T13:00:04;99712.22;;;28.20;32.02
76603;BME280;65075;48.390;17.598;2023-05-21T13:02:40;99732.63;;;28.94;31.44
76603;BME280;65075;48.390;17.598;2023-05-21T13:05:08;99736.00;;;29.69;31.29
76603;BME280;65075;48.390;17.598;2023-05-21T13:07:35;99720.78;;;29.73;31.17
76603;BME280;65075;48.390;17.598;2023-05-21T13:10:03;99718.16;;;29.36;32.02
76603;BME280;65075;48.390;17.598;2023-05-21T13:12:30;99715.22;;;28.75;31.59
76603;BME280;65075;48.390;17.598;2023-05-21T13:14:58;99719.47;;;29.02;31.27